Pagrindinis puslapis
METAR-TAF:

METAR-TAF

Oro uostai :

Bratislava, Slovakija

platuma: 48-12N, ilguma: 017-12E, Aukštis: 133 m

Dabartinis oras

Ataskaita buvo paskelbta 43 minutes, ne 17:00 UTC
Vėjas 12 kt iš Šiaurės
Temperatūra 7°C
Drėgmė 61%
Slėgis 1016 hPa
Matomumas 10 km arba daugiau
Mažai debesys ne aukštis 2700 ft
Su prošvaistėmis ne aukštis 3100 ft

METAR: LZIB 211700Z 35012KT 9999 FEW027 BKN031 07/00 Q1016 NOSIG

Laikas: 19:43 (17:43 UTC)

Prognozė

Ataskaita buvo paskelbta 28 minutes, ne 17:15 UTC
Prognozė galioja nuo 21 metu 18 UTC su 22 metu 18 UTC
Vėjas 14 kt iš Šiaurės Vakarų
Matomumas 10 km arba daugiau
Išsisklaidę debesys ne aukštis 3000 ft
Laikinai
nuo 21 metu 19 UTC su 22 metu 06 UTC
Vėjas 6 kt iš Šiaurės

TAF: LZIB 211715Z 2118/2218 32014KT 9999 SCT030 TEMPO 2119/2206 36006KT

Orai ataskaitas ir orų prognozės (METAR, TAF).

turimą stotys yra geltonos ir raudonos taškus žemėlapyje.

Perkelti pele per norėdami pamatyti stoties vardą.

Tada spustelėkite, norėdami matyti oro stebėjimo ir prognozės.

Norėdami pakeisti žemėlapį: spustelėkite ant žalios mygtukų su juodo kryžiaus žemyn,; žalią mygtuką su brūkšneliu, jei norite nutolinti; arba žalių rodyklių gretimoms žemėlapius.


METAR-TAF: